createdAt,value
2018-09-20T00:02:15.965Z,71.20
2018-09-20T00:04:45.881Z,70.40
2018-09-20T00:07:16.329Z,70.60
2018-09-20T00:09:46.769Z,70.60
2018-09-20T00:12:16.674Z,70.60
2018-09-20T00:14:46.233Z,70.60
2018-09-20T00:17:22.245Z,70.50
2018-09-20T00:19:53.292Z,70.80
2018-09-20T00:22:23.817Z,70.80
2018-09-20T00:24:56.942Z,70.50
2018-09-20T00:27:27.036Z,70.20
2018-09-20T00:29:57.320Z,70.00
2018-09-20T00:32:27.964Z,69.90
2018-09-20T00:34:58.417Z,69.70
2018-09-20T00:37:28.239Z,69.50
2018-09-20T00:39:58.843Z,69.60
2018-09-20T00:42:29.156Z,69.60
2018-09-20T00:44:59.782Z,69.60
2018-09-20T00:47:30.882Z,69.60
2018-09-20T00:50:01.968Z,70.00
2018-09-20T00:52:32.304Z,70.00
2018-09-20T00:55:02.494Z,70.80
2018-09-20T00:57:33.617Z,69.90
2018-09-20T01:00:03.814Z,69.90
2018-09-20T01:02:34.124Z,70.00
2018-09-20T01:05:04.342Z,69.90
2018-09-20T01:07:34.313Z,69.80
2018-09-20T01:10:04.601Z,69.60
2018-09-20T01:12:35.014Z,69.40
2018-09-20T01:15:05.952Z,69.40
2018-09-20T01:17:36.850Z,69.30
2018-09-20T01:20:11.142Z,69.10
2018-09-20T01:22:41.376Z,69.30
2018-09-20T01:25:12.139Z,70.20
2018-09-20T01:27:42.630Z,69.50
2018-09-20T01:30:12.831Z,69.80
2018-09-20T01:32:43.361Z,70.00
2018-09-20T01:35:21.877Z,70.10
2018-09-20T01:37:51.756Z,70.30
2018-09-20T01:40:22.248Z,70.70
2018-09-20T01:42:52.483Z,70.90
2018-09-20T01:45:22.935Z,71.10
2018-09-20T01:47:53.383Z,71.10
2018-09-20T01:50:23.505Z,71.10
2018-09-20T01:52:53.417Z,71.80
2018-09-20T01:55:24.450Z,71.10
2018-09-20T01:57:54.610Z,70.90
2018-09-20T02:00:25.864Z,70.90
2018-09-20T02:02:56.424Z,70.80
2018-09-20T02:05:26.686Z,70.80
2018-09-20T02:07:57.059Z,70.90
2018-09-20T02:10:29.249Z,70.90
2018-09-20T02:12:59.853Z,70.90
2018-09-20T02:15:29.870Z,70.90
2018-09-20T02:18:00.358Z,71.20
2018-09-20T02:20:43.578Z,70.30
2018-09-20T02:23:13.806Z,70.20
2018-09-20T02:25:43.919Z,70.20
2018-09-20T02:28:13.971Z,71.60
2018-09-20T02:30:46.202Z,71.00
2018-09-20T02:33:16.355Z,71.10
2018-09-20T02:35:46.207Z,70.10
2018-09-20T02:38:16.662Z,69.90
2018-09-20T02:40:51.284Z,69.90
2018-09-20T02:43:21.501Z,70.30
2018-09-20T02:45:51.547Z,70.00
2018-09-20T02:48:21.573Z,69.60
2018-09-20T02:51:03.533Z,69.70
2018-09-20T02:53:33.894Z,69.50
2018-09-20T02:56:04.250Z,69.60
2018-09-20T02:58:34.937Z,69.70
2018-09-20T03:01:05.265Z,69.80
2018-09-20T03:03:35.291Z,69.60
2018-09-20T03:06:05.732Z,69.50
2018-09-20T03:08:35.598Z,70.00
2018-09-20T03:11:06.386Z,69.90
2018-09-20T03:13:36.521Z,70.20
2018-09-20T03:16:11.739Z,70.10
2018-09-20T03:18:42.316Z,70.10
2018-09-20T03:21:12.523Z,70.20
2018-09-20T03:23:43.751Z,70.30
2018-09-20T03:26:15.569Z,70.20
2018-09-20T03:28:45.713Z,70.30
2018-09-20T03:31:17.031Z,70.20
2018-09-20T03:33:47.543Z,70.40
2018-09-20T03:36:20.181Z,70.20
2018-09-20T03:38:50.064Z,70.10
2018-09-20T03:41:19.664Z,70.70
2018-09-20T03:43:50.521Z,70.40
2018-09-20T03:46:20.665Z,70.50
2018-09-20T03:48:51.072Z,70.80
2018-09-20T03:51:21.129Z,71.60
2018-09-20T03:53:51.357Z,70.80
2018-09-20T03:56:21.172Z,71.00
2018-09-20T03:58:51.109Z,71.20
2018-09-20T04:01:25.364Z,71.30
2018-09-20T04:03:55.571Z,71.60
2018-09-20T04:06:25.983Z,71.90
2018-09-20T04:08:56.448Z,72.10
2018-09-20T04:11:31.289Z,72.40
2018-09-20T04:14:07.110Z,72.70
2018-09-20T04:16:44.534Z,72.90
2018-09-20T04:19:15.108Z,73.20
2018-09-20T04:21:45.666Z,73.40
2018-09-20T04:24:15.910Z,74.00
2018-09-20T04:26:47.615Z,74.30
2018-09-20T04:29:17.534Z,74.30
2018-09-20T04:31:47.529Z,74.10
2018-09-20T04:34:17.555Z,73.90
2018-09-20T04:36:48.045Z,74.00
2018-09-20T04:39:33.941Z,73.70
2018-09-20T04:42:08.456Z,73.90
2018-09-20T04:44:44.616Z,74.20
2018-09-20T04:47:14.461Z,74.30
2018-09-20T04:49:45.923Z,74.40
2018-09-20T04:52:16.480Z,74.50
2018-09-20T04:54:47.774Z,74.10
2018-09-20T04:57:20.541Z,73.80
2018-09-20T04:59:51.322Z,73.80
2018-09-20T05:02:21.930Z,73.80
2018-09-20T05:04:52.558Z,73.80
2018-09-20T05:07:23.071Z,73.80
2018-09-20T05:09:53.375Z,73.90
2018-09-20T05:12:28.953Z,73.50
2018-09-20T05:15:05.433Z,73.20
2018-09-20T05:17:37.158Z,73.00
2018-09-20T05:20:07.873Z,72.90
2018-09-20T05:22:38.410Z,72.70
2018-09-20T05:25:09.630Z,72.50
2018-09-20T05:27:40.441Z,72.50
2018-09-20T05:30:11.798Z,72.30
2018-09-20T05:32:42.609Z,72.10
2018-09-20T05:35:13.096Z,72.00
2018-09-20T05:37:43.732Z,72.00
2018-09-20T05:40:14.739Z,71.80
2018-09-20T05:42:46.462Z,72.00
2018-09-20T05:45:17.279Z,72.00
2018-09-20T05:47:48.211Z,75.60
2018-09-20T05:50:19.020Z,76.00
2018-09-20T05:52:48.948Z,74.90
2018-09-20T05:55:57.785Z,74.80
2018-09-20T05:58:28.419Z,71.70
2018-09-20T06:00:59.053Z,69.80
2018-09-20T06:03:28.984Z,69.10
2018-09-20T06:05:59.769Z,68.40
2018-09-20T06:08:29.137Z,68.30
2018-09-20T06:10:59.221Z,68.50
2018-09-20T06:13:30.068Z,68.70
2018-09-20T06:16:00.583Z,68.80
2018-09-20T06:18:30.232Z,68.90
2018-09-20T06:21:00.688Z,69.00
2018-09-20T06:23:30.501Z,69.30
2018-09-20T06:26:00.570Z,69.40
2018-09-20T06:28:31.359Z,69.50
2018-09-20T06:31:01.758Z,69.60
2018-09-20T06:33:32.029Z,69.70
2018-09-20T06:36:03.010Z,69.80
2018-09-20T06:38:32.619Z,69.90
2018-09-20T06:41:02.621Z,69.80
2018-09-20T06:43:32.097Z,69.70
2018-09-20T06:46:03.406Z,69.80
2018-09-20T06:48:33.109Z,70.60
2018-09-20T06:51:03.952Z,70.00
2018-09-20T06:53:33.772Z,69.90
2018-09-20T06:56:03.830Z,69.70
2018-09-20T07:02:11.546Z,69.80
2018-09-20T07:04:40.878Z,70.00
2018-09-20T07:07:09.879Z,70.40
2018-09-20T07:09:38.838Z,70.50
2018-09-20T07:12:07.842Z,70.80
2018-09-20T07:14:37.150Z,71.20
2018-09-20T07:17:06.356Z,71.30
2018-09-20T07:19:35.442Z,71.40
2018-09-20T07:22:06.712Z,71.30
2018-09-20T07:24:38.019Z,71.20
2018-09-20T07:27:07.808Z,71.10
2018-09-20T07:29:36.844Z,71.40
2018-09-20T07:32:06.127Z,71.50
2018-09-20T07:34:35.153Z,71.50
2018-09-20T07:37:04.258Z,71.30
2018-09-20T07:39:33.544Z,71.40
2018-09-20T07:42:02.502Z,71.60
2018-09-20T07:44:31.498Z,71.40
2018-09-20T07:47:00.568Z,71.40
2018-09-20T07:49:29.486Z,71.20
2018-09-20T07:51:58.840Z,71.20
2018-09-20T07:54:27.797Z,71.50
2018-09-20T07:56:56.841Z,71.50
2018-09-20T07:59:25.722Z,71.20
2018-09-20T08:01:55.150Z,71.30
2018-09-20T08:04:24.170Z,71.40
2018-09-20T08:06:53.203Z,71.30
2018-09-20T08:09:22.146Z,71.20
2018-09-20T08:11:51.426Z,70.60
2018-09-20T08:14:20.383Z,70.60
2018-09-20T08:16:49.328Z,70.70
2018-09-20T08:19:18.285Z,70.60
2018-09-20T08:21:47.544Z,70.20
2018-09-20T08:24:16.460Z,70.00
2018-09-20T08:26:45.401Z,69.70
2018-09-20T08:29:14.351Z,69.60
2018-09-20T08:31:43.288Z,69.80
2018-09-20T08:34:12.273Z,69.20
2018-09-20T08:36:42.554Z,68.60
2018-09-20T08:39:12.595Z,68.60
2018-09-20T08:41:41.648Z,68.60
2018-09-20T08:44:10.620Z,68.50
2018-09-20T08:46:39.934Z,68.60
2018-09-20T08:49:08.959Z,68.90
2018-09-20T08:51:37.870Z,68.70
2018-09-20T08:54:07.220Z,68.10
2018-09-20T08:56:36.218Z,68.70
2018-09-20T08:59:05.246Z,68.90
2018-09-20T09:01:34.247Z,69.30
2018-09-20T09:04:03.739Z,68.70
2018-09-20T09:06:32.732Z,69.20
2018-09-20T09:09:03.450Z,69.20
2018-09-20T09:11:33.070Z,69.20
2018-09-20T09:14:02.114Z,69.30
2018-09-20T09:16:31.086Z,69.70
2018-09-20T09:19:00.191Z,69.30
2018-09-20T09:21:29.280Z,69.10
2018-09-20T09:23:58.771Z,69.50
2018-09-20T09:26:27.847Z,69.90
2018-09-20T09:28:56.903Z,69.80
2018-09-20T09:31:25.863Z,69.20
2018-09-20T09:33:56.139Z,68.90
2018-09-20T09:36:25.194Z,69.00
2018-09-20T09:38:54.259Z,69.00
2018-09-20T09:41:23.944Z,69.90
2018-09-20T09:43:52.867Z,68.50
2018-09-20T09:46:21.864Z,68.70
2018-09-20T09:48:53.040Z,68.40
2018-09-20T09:51:22.089Z,68.20
2018-09-20T09:53:51.807Z,67.80
2018-09-20T09:56:20.811Z,67.70
2018-09-20T09:58:50.378Z,67.00
2018-09-20T10:01:20.296Z,66.50
2018-09-20T10:03:49.287Z,67.30
2018-09-20T10:06:18.373Z,67.70
2018-09-20T10:08:47.637Z,66.80
2018-09-20T10:11:16.607Z,66.50
2018-09-20T10:13:45.620Z,66.20
2018-09-20T10:16:14.790Z,66.70
2018-09-20T10:18:43.900Z,65.70
2018-09-20T10:21:13.027Z,65.50
2018-09-20T10:23:42.583Z,65.20
2018-09-20T10:26:11.706Z,65.30
2018-09-20T10:28:40.647Z,65.40
2018-09-20T10:31:10.147Z,63.70
2018-09-20T10:33:39.165Z,64.30
2018-09-20T10:36:08.249Z,64.60
2018-09-20T10:38:37.178Z,64.20
2018-09-20T10:41:06.924Z,63.90
2018-09-20T10:43:36.776Z,63.20
2018-09-20T10:46:05.906Z,63.50
2018-09-20T10:48:34.995Z,62.80
2018-09-20T10:51:05.640Z,61.60
2018-09-20T10:53:34.749Z,61.60
2018-09-20T10:56:04.877Z,61.00
2018-09-20T10:58:33.942Z,60.70
2018-09-20T11:01:03.069Z,60.90
2018-09-20T11:03:32.209Z,61.10
2018-09-20T11:06:01.691Z,59.90
2018-09-20T11:08:30.764Z,59.60
2018-09-20T11:10:59.970Z,58.90
2018-09-20T11:13:29.116Z,60.80
2018-09-20T11:16:00.258Z,59.90
2018-09-20T11:18:30.016Z,60.60
2018-09-20T11:20:59.732Z,59.60
2018-09-20T11:23:35.456Z,58.60
2018-09-20T11:26:05.645Z,58.30
2018-09-20T11:28:37.036Z,59.40
2018-09-20T11:31:06.898Z,58.70
2018-09-20T11:33:39.902Z,58.40
2018-09-20T11:36:09.656Z,57.20
2018-09-20T11:38:40.259Z,56.70
2018-09-20T11:41:09.575Z,57.30
2018-09-20T11:43:39.695Z,57.50
2018-09-20T11:46:10.763Z,57.30
2018-09-20T11:48:40.587Z,56.40
2018-09-20T11:51:10.354Z,56.80
2018-09-20T11:53:40.211Z,56.80
2018-09-20T11:56:10.287Z,57.10
2018-09-20T11:58:40.410Z,55.60
2018-09-20T12:01:10.109Z,55.90
2018-09-20T12:03:40.210Z,56.00
2018-09-20T12:06:09.410Z,55.70
2018-09-20T12:08:38.907Z,54.90
2018-09-20T12:11:08.694Z,55.10
2018-09-20T12:13:38.806Z,55.30
2018-09-20T12:16:08.352Z,53.60
2018-09-20T12:18:37.671Z,53.60
2018-09-20T12:21:08.347Z,54.60
2018-09-20T12:23:38.679Z,54.20
2018-09-20T12:26:08.844Z,53.50
2018-09-20T12:28:38.708Z,53.50
2018-09-20T12:31:09.342Z,52.10
2018-09-20T12:33:39.225Z,53.20
2018-09-20T12:36:09.538Z,52.80
2018-09-20T12:38:38.925Z,52.80
2018-09-20T12:41:09.030Z,50.70
2018-09-20T12:43:39.359Z,51.30
2018-09-20T12:46:10.139Z,52.40
2018-09-20T12:48:40.231Z,51.80
2018-09-20T12:51:10.329Z,52.00
2018-09-20T12:53:40.170Z,52.30
2018-09-20T12:56:11.944Z,52.40
2018-09-20T12:58:47.174Z,52.20
2018-09-20T13:01:18.312Z,51.70
2018-09-20T13:03:48.677Z,52.00
2018-09-20T13:06:18.998Z,52.50
2018-09-20T13:08:48.933Z,52.70
2018-09-20T13:11:19.685Z,52.80
2018-09-20T13:13:51.432Z,51.90
2018-09-20T13:16:21.871Z,51.10
2018-09-20T13:18:55.027Z,49.90
2018-09-20T13:21:24.977Z,49.40
2018-09-20T13:23:56.026Z,50.20
2018-09-20T13:26:26.428Z,48.90
2018-09-20T13:28:58.135Z,50.30
2018-09-20T13:31:28.603Z,49.50
2018-09-20T13:33:59.997Z,48.30
2018-09-20T13:36:30.314Z,49.70
2018-09-20T13:39:00.654Z,47.60
2018-09-20T13:41:30.663Z,49.30
2018-09-20T13:44:01.967Z,49.20
2018-09-20T13:46:32.825Z,48.00
2018-09-20T13:49:03.244Z,47.60
2018-09-20T13:51:33.400Z,47.10
2018-09-20T13:54:06.240Z,48.80
2018-09-20T13:56:36.663Z,48.00
2018-09-20T13:59:06.322Z,46.90
2018-09-20T14:01:37.497Z,48.20
2018-09-20T14:04:07.425Z,47.40
2018-09-20T14:06:37.816Z,48.40
2018-09-20T14:09:11.891Z,48.50
2018-09-20T14:11:42.326Z,48.40
2018-09-20T14:14:12.036Z,47.90
2018-09-20T14:16:42.855Z,48.20
2018-09-20T14:19:17.318Z,47.20
2018-09-20T14:21:47.505Z,47.10
2018-09-20T14:24:17.342Z,47.50
2018-09-20T14:26:47.742Z,48.20
2018-09-20T14:29:19.913Z,48.10
2018-09-20T14:31:50.569Z,48.30
2018-09-20T14:34:20.660Z,48.20
2018-09-20T14:36:52.400Z,48.30
2018-09-20T14:39:28.002Z,48.50
2018-09-20T14:42:03.225Z,47.80
2018-09-20T14:44:35.016Z,48.40
2018-09-20T14:47:06.420Z,48.50
2018-09-20T14:49:36.478Z,45.70
2018-09-20T14:52:08.851Z,46.40
2018-09-20T14:54:38.376Z,47.20
2018-09-20T14:57:08.545Z,46.90
2018-09-20T14:59:38.160Z,47.60
2018-09-20T15:02:08.141Z,47.20
2018-09-20T15:04:37.574Z,46.40
2018-09-20T15:07:07.995Z,45.90
2018-09-20T15:09:38.397Z,45.60
2018-09-20T15:12:07.907Z,44.70
2018-09-20T15:14:38.163Z,46.60
2018-09-20T15:17:08.787Z,47.70
2018-09-20T15:19:39.017Z,49.10
2018-09-20T15:22:10.082Z,46.30
2018-09-20T15:24:40.290Z,47.60
2018-09-20T15:27:11.184Z,46.20
2018-09-20T15:29:40.745Z,47.20
2018-09-20T15:32:11.225Z,47.40
2018-09-20T15:34:41.102Z,47.80
2018-09-20T15:37:11.306Z,48.00
2018-09-20T15:39:41.198Z,48.50
2018-09-20T15:42:12.616Z,47.90
2018-09-20T15:44:42.310Z,49.00
2018-09-20T15:47:13.190Z,48.60
2018-09-20T15:49:42.812Z,49.00
2018-09-20T15:52:12.790Z,49.30
2018-09-20T15:54:43.309Z,49.40
2018-09-20T15:57:13.010Z,49.30
2018-09-20T15:59:42.828Z,49.10
2018-09-20T16:02:13.833Z,49.90
2018-09-20T16:04:44.151Z,49.50
2018-09-20T16:07:14.345Z,49.80
2018-09-20T16:09:44.127Z,50.10
2018-09-20T16:12:14.467Z,50.00
2018-09-20T16:14:44.386Z,50.00
2018-09-20T16:17:14.515Z,50.60
2018-09-20T16:19:44.913Z,50.80
2018-09-20T16:22:16.665Z,50.90
2018-09-20T16:24:47.043Z,51.10
2018-09-20T16:27:17.492Z,51.10
2018-09-20T16:34:24.033Z,51.40
2018-09-20T16:37:52.526Z,51.40
2018-09-20T16:40:25.055Z,52.00
2018-09-20T16:42:55.109Z,52.40
2018-09-20T16:45:25.078Z,52.80
2018-09-20T16:47:56.164Z,53.00
2018-09-20T16:50:27.413Z,53.00
2018-09-20T16:52:57.942Z,52.70
2018-09-20T16:55:28.333Z,52.80
2018-09-20T16:57:58.840Z,53.20
2018-09-20T17:00:29.660Z,53.10
2018-09-20T17:03:00.997Z,53.10
2018-09-20T17:05:31.443Z,53.10
2018-09-20T17:08:01.927Z,53.20
2018-09-20T17:10:31.758Z,53.70
2018-09-20T17:13:02.492Z,53.60
2018-09-20T17:15:32.728Z,54.00
2018-09-20T17:18:04.491Z,54.60
2018-09-20T17:20:34.629Z,54.90
2018-09-20T17:23:05.388Z,55.70
2018-09-20T17:25:35.433Z,56.10
2018-09-20T17:28:06.741Z,56.00
2018-09-20T17:30:36.710Z,56.20
2018-09-20T17:33:06.223Z,56.40
2018-09-20T17:35:38.381Z,56.70
2018-09-20T17:38:10.587Z,56.70
2018-09-20T17:40:42.244Z,56.80
2018-09-20T17:43:16.156Z,56.90
2018-09-20T17:45:48.743Z,57.40
2018-09-20T17:48:19.789Z,57.60
2018-09-20T17:50:50.944Z,57.90
2018-09-20T17:53:23.120Z,58.20
2018-09-20T17:55:56.362Z,58.50
2018-09-20T17:58:27.730Z,58.90
2018-09-20T18:00:58.531Z,59.10
2018-09-20T18:03:29.207Z,59.30
2018-09-20T18:05:59.451Z,59.80
2018-09-20T18:08:29.504Z,60.70
2018-09-20T18:10:59.686Z,61.40
2018-09-20T18:13:30.836Z,62.10
2018-09-20T18:16:06.465Z,62.40
2018-09-20T18:18:37.936Z,62.80
2018-09-20T18:21:09.603Z,63.00
2018-09-20T18:23:42.242Z,62.80
2018-09-20T18:26:12.625Z,62.70
2018-09-20T18:28:43.493Z,63.30
2018-09-20T18:31:13.569Z,62.20
2018-09-20T18:33:44.865Z,62.40
2018-09-20T18:36:15.913Z,62.40
2018-09-20T18:38:47.095Z,62.50
2018-09-20T18:41:17.213Z,62.80
2018-09-20T18:43:47.024Z,63.30
2018-09-20T18:46:17.257Z,63.70
2018-09-20T18:48:47.156Z,64.00
2018-09-20T18:51:17.470Z,64.30
2018-09-20T18:53:47.756Z,64.40
2018-09-20T18:56:17.884Z,64.50
2018-09-20T18:58:48.244Z,64.60
2018-09-20T19:01:18.057Z,64.70
2018-09-20T19:03:47.655Z,64.60
2018-09-20T19:06:17.634Z,64.70
2018-09-20T19:08:48.672Z,64.90
2018-09-20T19:11:18.166Z,65.50
2018-09-20T19:13:48.089Z,66.00
2018-09-20T19:16:17.606Z,66.10
2018-09-20T19:18:47.665Z,66.50
2018-09-20T19:21:17.450Z,66.80
2018-09-20T19:23:47.219Z,66.70
2018-09-20T19:26:17.316Z,66.60
2018-09-20T19:28:47.575Z,66.40
2018-09-20T19:31:18.004Z,66.30
2018-09-20T19:33:47.921Z,66.30
2018-09-20T19:36:19.007Z,66.20
2018-09-20T19:38:49.371Z,66.20
2018-09-20T19:41:21.898Z,66.30
2018-09-20T19:43:51.619Z,66.50
2018-09-20T19:46:21.207Z,66.50
2018-09-20T19:48:50.710Z,66.60
2018-09-20T19:51:21.126Z,66.50
2018-09-20T19:53:50.865Z,66.70
2018-09-20T19:56:20.731Z,66.70
2018-09-20T19:58:50.390Z,66.70
2018-09-20T20:01:20.303Z,66.60
2018-09-20T20:03:49.850Z,66.50
2018-09-20T20:06:19.653Z,66.60
2018-09-20T20:08:50.245Z,66.70
2018-09-20T20:11:19.666Z,66.80
2018-09-20T20:13:49.162Z,66.90
2018-09-20T20:16:18.740Z,67.00
2018-09-20T20:18:48.196Z,67.00
2018-09-20T20:21:17.829Z,67.00
2018-09-20T20:23:48.095Z,67.30
2018-09-20T20:26:17.715Z,67.30
2018-09-20T20:28:47.398Z,67.50
2018-09-20T20:31:20.059Z,67.40
2018-09-20T20:33:50.865Z,67.60
2018-09-20T20:36:20.987Z,67.70
2018-09-20T20:38:51.121Z,67.70
2018-09-20T20:41:21.043Z,67.70
2018-09-20T20:43:50.779Z,67.70
2018-09-20T20:46:21.691Z,68.00
2018-09-20T20:48:51.775Z,67.90
2018-09-20T20:51:22.323Z,68.00
2018-09-20T20:53:52.867Z,68.00
2018-09-20T20:56:22.741Z,67.90
2018-09-20T20:58:54.962Z,68.00
2018-09-20T21:01:24.872Z,68.00
2018-09-20T21:03:54.129Z,68.10
2018-09-20T21:06:23.725Z,68.20
2018-09-20T21:08:54.114Z,68.40
2018-09-20T21:11:23.694Z,68.60
2018-09-20T21:13:53.363Z,68.60
2018-09-20T21:16:23.197Z,68.50
2018-09-20T21:18:52.534Z,68.70
2018-09-20T21:21:22.217Z,68.70
2018-09-20T21:23:51.926Z,68.80
2018-09-20T21:26:22.078Z,69.10
2018-09-20T21:28:52.026Z,69.40
2018-09-20T21:31:21.691Z,69.40
2018-09-20T21:33:51.756Z,69.00
2018-09-20T21:36:21.191Z,69.00
2018-09-20T21:38:50.814Z,69.10
2018-09-20T21:41:20.412Z,69.30
2018-09-20T21:43:50.579Z,69.60
2018-09-20T21:46:20.057Z,69.60
2018-09-20T21:48:51.762Z,69.70
2018-09-20T21:51:21.410Z,69.90
2018-09-20T21:53:50.960Z,69.80
2018-09-20T21:56:20.820Z,69.80
2018-09-20T21:58:50.339Z,69.90
2018-09-20T22:01:19.597Z,69.80
2018-09-20T22:03:53.252Z,70.20
2018-09-20T22:06:22.803Z,70.00
2018-09-20T22:08:52.601Z,69.80
2018-09-20T22:11:22.087Z,69.80
2018-09-20T22:13:51.797Z,69.70
2018-09-20T22:16:20.993Z,69.90
2018-09-20T22:18:51.495Z,70.00
2018-09-20T22:21:21.083Z,70.20
2018-09-20T22:23:50.807Z,70.80
2018-09-20T22:26:20.090Z,70.60
2018-09-20T22:28:50.085Z,70.60
2018-09-20T22:31:20.656Z,70.40
2018-09-20T22:33:51.284Z,70.50
2018-09-20T22:36:20.575Z,70.40
2018-09-20T22:38:50.495Z,70.40
2018-09-20T22:41:20.261Z,70.50
2018-09-20T22:43:50.989Z,70.40
2018-09-20T22:46:21.300Z,70.20
2018-09-20T22:48:51.048Z,70.20
2018-09-20T22:51:22.447Z,70.30
2018-09-20T22:53:51.767Z,69.60
2018-09-20T22:56:21.786Z,70.20
2018-09-20T22:58:51.290Z,70.30
2018-09-20T23:01:21.533Z,70.10
2018-09-20T23:03:51.102Z,70.20
2018-09-20T23:06:21.232Z,70.40
2018-09-20T23:08:51.153Z,70.30
2018-09-20T23:11:20.732Z,70.20
2018-09-20T23:13:50.385Z,70.50
2018-09-20T23:16:20.404Z,70.30
2018-09-20T23:18:49.632Z,70.60
2018-09-20T23:21:19.143Z,70.70
2018-09-20T23:23:48.724Z,70.70
2018-09-20T23:26:19.193Z,71.10
2018-09-20T23:28:48.886Z,71.00
2018-09-20T23:31:18.847Z,71.00
2018-09-20T23:33:48.948Z,70.90
2018-09-20T23:36:18.553Z,71.10
2018-09-20T23:38:47.996Z,71.20
2018-09-20T23:41:18.044Z,71.30
2018-09-20T23:43:47.637Z,71.30
2018-09-20T23:46:17.690Z,71.50
2018-09-20T23:48:47.519Z,71.70
2018-09-20T23:51:16.867Z,71.80
2018-09-20T23:53:46.834Z,71.80
2018-09-20T23:56:19.467Z,71.50
2018-09-20T23:58:49.265Z,71.50
